sensor_id;sensor_type;location;lat;lon;timestamp;P1;durP1;ratioP1;P2;durP2;ratioP2
55784;SDS011;41709;52.536;5.688;2024-01-30T00:01:10;13.50;;;9.48;;
55784;SDS011;41709;52.536;5.688;2024-01-30T00:03:36;14.38;;;9.02;;
55784;SDS011;41709;52.536;5.688;2024-01-30T00:06:02;13.57;;;9.13;;
55784;SDS011;41709;52.536;5.688;2024-01-30T00:08:28;15.20;;;9.82;;
55784;SDS011;41709;52.536;5.688;2024-01-30T00:10:54;16.48;;;9.40;;
55784;SDS011;41709;52.536;5.688;2024-01-30T00:13:20;12.23;;;8.95;;
55784;SDS011;41709;52.536;5.688;2024-01-30T00:15:45;12.77;;;9.27;;
55784;SDS011;41709;52.536;5.688;2024-01-30T00:18:11;19.83;;;9.63;;
55784;SDS011;41709;52.536;5.688;2024-01-30T00:20:36;14.63;;;9.95;;
55784;SDS011;41709;52.536;5.688;2024-01-30T00:23:02;11.95;;;8.90;;
55784;SDS011;41709;52.536;5.688;2024-01-30T00:25:28;16.33;;;9.93;;
55784;SDS011;41709;52.536;5.688;2024-01-30T00:27:53;12.30;;;8.50;;
55784;SDS011;41709;52.536;5.688;2024-01-30T00:30:19;17.85;;;9.73;;
55784;SDS011;41709;52.536;5.688;2024-01-30T00:32:45;14.73;;;9.23;;
55784;SDS011;41709;52.536;5.688;2024-01-30T00:35:11;23.52;;;10.30;;
55784;SDS011;41709;52.536;5.688;2024-01-30T00:37:36;13.63;;;9.23;;
55784;SDS011;41709;52.536;5.688;2024-01-30T00:40:02;14.48;;;9.40;;
55784;SDS011;41709;52.536;5.688;2024-01-30T00:42:28;11.85;;;8.77;;
55784;SDS011;41709;52.536;5.688;2024-01-30T00:44:54;13.90;;;8.88;;
55784;SDS011;41709;52.536;5.688;2024-01-30T00:47:20;16.33;;;9.30;;
55784;SDS011;41709;52.536;5.688;2024-01-30T00:49:45;12.70;;;8.55;;
55784;SDS011;41709;52.536;5.688;2024-01-30T00:52:11;14.68;;;9.60;;
55784;SDS011;41709;52.536;5.688;2024-01-30T00:54:37;13.35;;;8.60;;
55784;SDS011;41709;52.536;5.688;2024-01-30T00:57:02;14.02;;;8.40;;
55784;SDS011;41709;52.536;5.688;2024-01-30T00:59:28;15.30;;;10.00;;
55784;SDS011;41709;52.536;5.688;2024-01-30T01:01:54;11.98;;;8.85;;
55784;SDS011;41709;52.536;5.688;2024-01-30T01:04:19;14.60;;;9.15;;
55784;SDS011;41709;52.536;5.688;2024-01-30T01:06:46;13.45;;;9.52;;
55784;SDS011;41709;52.536;5.688;2024-01-30T01:09:12;14.88;;;9.20;;
55784;SDS011;41709;52.536;5.688;2024-01-30T01:11:37;13.00;;;8.90;;
55784;SDS011;41709;52.536;5.688;2024-01-30T01:14:03;17.35;;;9.48;;
55784;SDS011;41709;52.536;5.688;2024-01-30T01:16:29;14.27;;;8.68;;
55784;SDS011;41709;52.536;5.688;2024-01-30T01:18:55;13.73;;;8.73;;
55784;SDS011;41709;52.536;5.688;2024-01-30T01:21:21;12.07;;;8.68;;
55784;SDS011;41709;52.536;5.688;2024-01-30T01:23:48;13.32;;;8.70;;
55784;SDS011;41709;52.536;5.688;2024-01-30T01:26:13;11.95;;;9.00;;
55784;SDS011;41709;52.536;5.688;2024-01-30T01:28:40;13.43;;;8.18;;
55784;SDS011;41709;52.536;5.688;2024-01-30T01:31:06;13.65;;;8.68;;
55784;SDS011;41709;52.536;5.688;2024-01-30T01:33:32;14.38;;;8.65;;
55784;SDS011;41709;52.536;5.688;2024-01-30T01:35:58;13.48;;;8.52;;
55784;SDS011;41709;52.536;5.688;2024-01-30T01:38:24;12.85;;;9.20;;
55784;SDS011;41709;52.536;5.688;2024-01-30T01:40:50;13.77;;;8.82;;
55784;SDS011;41709;52.536;5.688;2024-01-30T01:43:16;12.25;;;8.73;;
55784;SDS011;41709;52.536;5.688;2024-01-30T01:45:41;10.60;;;8.15;;
55784;SDS011;41709;52.536;5.688;2024-01-30T01:48:07;11.40;;;8.48;;
55784;SDS011;41709;52.536;5.688;2024-01-30T01:50:34;11.35;;;8.35;;
55784;SDS011;41709;52.536;5.688;2024-01-30T01:53:01;15.68;;;10.35;;
55784;SDS011;41709;52.536;5.688;2024-01-30T01:55:27;9.93;;;7.88;;
55784;SDS011;41709;52.536;5.688;2024-01-30T01:57:55;12.57;;;8.35;;
55784;SDS011;41709;52.536;5.688;2024-01-30T02:00:21;12.75;;;8.02;;
55784;SDS011;41709;52.536;5.688;2024-01-30T02:02:46;14.98;;;9.32;;
55784;SDS011;41709;52.536;5.688;2024-01-30T02:05:12;11.30;;;7.50;;
55784;SDS011;41709;52.536;5.688;2024-01-30T02:07:38;10.55;;;7.57;;
55784;SDS011;41709;52.536;5.688;2024-01-30T02:10:04;11.90;;;8.48;;
55784;SDS011;41709;52.536;5.688;2024-01-30T02:12:30;11.50;;;7.80;;
55784;SDS011;41709;52.536;5.688;2024-01-30T02:14:55;13.70;;;8.07;;
55784;SDS011;41709;52.536;5.688;2024-01-30T02:17:21;12.02;;;8.10;;
55784;SDS011;41709;52.536;5.688;2024-01-30T02:19:48;14.25;;;8.02;;
55784;SDS011;41709;52.536;5.688;2024-01-30T02:22:14;11.43;;;8.30;;
55784;SDS011;41709;52.536;5.688;2024-01-30T02:24:40;11.43;;;7.47;;
55784;SDS011;41709;52.536;5.688;2024-01-30T02:27:05;10.85;;;7.95;;
55784;SDS011;41709;52.536;5.688;2024-01-30T02:29:31;17.83;;;7.78;;
55784;SDS011;41709;52.536;5.688;2024-01-30T02:31:56;12.85;;;8.38;;
55784;SDS011;41709;52.536;5.688;2024-01-30T02:34:22;11.05;;;8.90;;
55784;SDS011;41709;52.536;5.688;2024-01-30T02:36:48;11.48;;;7.80;;
55784;SDS011;41709;52.536;5.688;2024-01-30T02:39:14;13.02;;;7.75;;
55784;SDS011;41709;52.536;5.688;2024-01-30T02:41:39;12.23;;;8.48;;
55784;SDS011;41709;52.536;5.688;2024-01-30T02:44:05;9.77;;;7.95;;
55784;SDS011;41709;52.536;5.688;2024-01-30T02:46:31;10.45;;;8.60;;
55784;SDS011;41709;52.536;5.688;2024-01-30T02:48:56;12.00;;;8.13;;
55784;SDS011;41709;52.536;5.688;2024-01-30T02:51:22;11.50;;;7.60;;
55784;SDS011;41709;52.536;5.688;2024-01-30T02:53:48;12.48;;;7.95;;
55784;SDS011;41709;52.536;5.688;2024-01-30T02:56:13;11.93;;;8.27;;
55784;SDS011;41709;52.536;5.688;2024-01-30T02:58:39;11.73;;;8.80;;
55784;SDS011;41709;52.536;5.688;2024-01-30T03:01:05;10.45;;;7.40;;
55784;SDS011;41709;52.536;5.688;2024-01-30T03:03:31;12.05;;;8.27;;
55784;SDS011;41709;52.536;5.688;2024-01-30T03:05:57;10.50;;;8.52;;
55784;SDS011;41709;52.536;5.688;2024-01-30T03:08:22;12.20;;;8.18;;
55784;SDS011;41709;52.536;5.688;2024-01-30T03:10:48;13.43;;;8.55;;
55784;SDS011;41709;52.536;5.688;2024-01-30T03:13:14;11.07;;;7.97;;
55784;SDS011;41709;52.536;5.688;2024-01-30T03:15:39;12.05;;;8.32;;
55784;SDS011;41709;52.536;5.688;2024-01-30T03:18:05;10.05;;;8.13;;
55784;SDS011;41709;52.536;5.688;2024-01-30T03:20:30;14.25;;;8.18;;
55784;SDS011;41709;52.536;5.688;2024-01-30T03:22:56;14.25;;;8.52;;
55784;SDS011;41709;52.536;5.688;2024-01-30T03:25:22;10.20;;;7.60;;
55784;SDS011;41709;52.536;5.688;2024-01-30T03:27:48;13.18;;;8.60;;
55784;SDS011;41709;52.536;5.688;2024-01-30T03:30:14;13.18;;;8.57;;
55784;SDS011;41709;52.536;5.688;2024-01-30T03:32:39;11.25;;;8.48;;
55784;SDS011;41709;52.536;5.688;2024-01-30T03:35:05;10.00;;;8.13;;
55784;SDS011;41709;52.536;5.688;2024-01-30T03:37:31;14.82;;;9.00;;
55784;SDS011;41709;52.536;5.688;2024-01-30T03:39:56;11.98;;;7.93;;
55784;SDS011;41709;52.536;5.688;2024-01-30T03:42:22;11.32;;;7.85;;
55784;SDS011;41709;52.536;5.688;2024-01-30T03:44:48;13.25;;;7.68;;
55784;SDS011;41709;52.536;5.688;2024-01-30T03:47:13;12.02;;;8.25;;
55784;SDS011;41709;52.536;5.688;2024-01-30T03:49:39;9.43;;;7.57;;
55784;SDS011;41709;52.536;5.688;2024-01-30T03:52:05;9.55;;;7.00;;
55784;SDS011;41709;52.536;5.688;2024-01-30T03:54:31;9.35;;;7.35;;
55784;SDS011;41709;52.536;5.688;2024-01-30T03:56:56;10.48;;;7.57;;
55784;SDS011;41709;52.536;5.688;2024-01-30T03:59:22;9.73;;;7.45;;
55784;SDS011;41709;52.536;5.688;2024-01-30T04:01:49;13.23;;;7.47;;
55784;SDS011;41709;52.536;5.688;2024-01-30T04:04:16;13.15;;;7.80;;
55784;SDS011;41709;52.536;5.688;2024-01-30T04:06:43;11.27;;;8.00;;
55784;SDS011;41709;52.536;5.688;2024-01-30T04:09:09;10.10;;;7.80;;
55784;SDS011;41709;52.536;5.688;2024-01-30T04:11:35;11.57;;;8.20;;
55784;SDS011;41709;52.536;5.688;2024-01-30T04:14:00;16.55;;;8.25;;
55784;SDS011;41709;52.536;5.688;2024-01-30T04:16:26;13.60;;;8.52;;
55784;SDS011;41709;52.536;5.688;2024-01-30T04:18:52;13.15;;;8.85;;
55784;SDS011;41709;52.536;5.688;2024-01-30T04:21:17;13.52;;;8.50;;
55784;SDS011;41709;52.536;5.688;2024-01-30T04:23:43;12.73;;;8.02;;
55784;SDS011;41709;52.536;5.688;2024-01-30T04:26:09;11.95;;;8.48;;
55784;SDS011;41709;52.536;5.688;2024-01-30T04:28:34;13.30;;;9.02;;
55784;SDS011;41709;52.536;5.688;2024-01-30T04:31:00;18.55;;;9.52;;
55784;SDS011;41709;52.536;5.688;2024-01-30T04:33:25;12.82;;;9.30;;
55784;SDS011;41709;52.536;5.688;2024-01-30T04:35:51;15.82;;;9.48;;
55784;SDS011;41709;52.536;5.688;2024-01-30T04:38:17;13.93;;;8.32;;
55784;SDS011;41709;52.536;5.688;2024-01-30T04:40:42;13.88;;;9.20;;
55784;SDS011;41709;52.536;5.688;2024-01-30T04:43:08;13.25;;;9.05;;
55784;SDS011;41709;52.536;5.688;2024-01-30T04:45:34;12.95;;;8.32;;
55784;SDS011;41709;52.536;5.688;2024-01-30T04:48:00;11.43;;;8.95;;
55784;SDS011;41709;52.536;5.688;2024-01-30T04:50:25;12.95;;;9.30;;
55784;SDS011;41709;52.536;5.688;2024-01-30T04:52:51;12.52;;;9.13;;
55784;SDS011;41709;52.536;5.688;2024-01-30T04:55:17;15.20;;;9.60;;
55784;SDS011;41709;52.536;5.688;2024-01-30T04:57:43;13.25;;;9.18;;
55784;SDS011;41709;52.536;5.688;2024-01-30T05:00:08;11.40;;;8.10;;
55784;SDS011;41709;52.536;5.688;2024-01-30T05:02:34;10.63;;;8.20;;
55784;SDS011;41709;52.536;5.688;2024-01-30T05:05:00;11.48;;;8.52;;
55784;SDS011;41709;52.536;5.688;2024-01-30T05:07:26;12.80;;;8.18;;
55784;SDS011;41709;52.536;5.688;2024-01-30T05:09:51;11.05;;;7.63;;
55784;SDS011;41709;52.536;5.688;2024-01-30T05:12:17;13.38;;;8.25;;
55784;SDS011;41709;52.536;5.688;2024-01-30T05:14:42;9.85;;;7.85;;
55784;SDS011;41709;52.536;5.688;2024-01-30T05:17:08;10.73;;;7.90;;
55784;SDS011;41709;52.536;5.688;2024-01-30T05:19:35;12.98;;;8.23;;
55784;SDS011;41709;52.536;5.688;2024-01-30T05:22:01;10.48;;;7.80;;
55784;SDS011;41709;52.536;5.688;2024-01-30T05:24:26;12.25;;;8.27;;
55784;SDS011;41709;52.536;5.688;2024-01-30T05:26:52;11.50;;;7.38;;
55784;SDS011;41709;52.536;5.688;2024-01-30T05:29:17;9.88;;;7.18;;
55784;SDS011;41709;52.536;5.688;2024-01-30T05:31:43;10.30;;;6.85;;
55784;SDS011;41709;52.536;5.688;2024-01-30T05:34:08;13.32;;;7.47;;
55784;SDS011;41709;52.536;5.688;2024-01-30T05:36:34;13.68;;;8.00;;
55784;SDS011;41709;52.536;5.688;2024-01-30T05:39:00;9.30;;;7.00;;
55784;SDS011;41709;52.536;5.688;2024-01-30T05:41:26;10.50;;;7.43;;
55784;SDS011;41709;52.536;5.688;2024-01-30T05:43:54;12.02;;;7.97;;
55784;SDS011;41709;52.536;5.688;2024-01-30T05:46:20;8.73;;;7.22;;
55784;SDS011;41709;52.536;5.688;2024-01-30T05:48:45;9.82;;;6.88;;
55784;SDS011;41709;52.536;5.688;2024-01-30T05:51:11;9.63;;;7.28;;
55784;SDS011;41709;52.536;5.688;2024-01-30T05:53:36;12.82;;;7.55;;
55784;SDS011;41709;52.536;5.688;2024-01-30T05:56:02;9.75;;;7.13;;
55784;SDS011;41709;52.536;5.688;2024-01-30T05:58:28;12.32;;;7.10;;
55784;SDS011;41709;52.536;5.688;2024-01-30T06:00:54;9.70;;;6.72;;
55784;SDS011;41709;52.536;5.688;2024-01-30T06:03:19;11.48;;;6.78;;
55784;SDS011;41709;52.536;5.688;2024-01-30T06:05:45;11.07;;;7.40;;
55784;SDS011;41709;52.536;5.688;2024-01-30T06:08:11;12.35;;;8.15;;
55784;SDS011;41709;52.536;5.688;2024-01-30T06:10:36;11.25;;;7.00;;
55784;SDS011;41709;52.536;5.688;2024-01-30T06:13:02;10.50;;;6.82;;
55784;SDS011;41709;52.536;5.688;2024-01-30T06:15:27;9.18;;;6.93;;
55784;SDS011;41709;52.536;5.688;2024-01-30T06:17:54;11.57;;;7.38;;
55784;SDS011;41709;52.536;5.688;2024-01-30T06:20:20;15.93;;;7.32;;
55784;SDS011;41709;52.536;5.688;2024-01-30T06:22:46;9.98;;;6.72;;
55784;SDS011;41709;52.536;5.688;2024-01-30T06:25:11;12.48;;;7.00;;
55784;SDS011;41709;52.536;5.688;2024-01-30T06:27:37;9.82;;;7.07;;
55784;SDS011;41709;52.536;5.688;2024-01-30T06:30:03;11.38;;;7.07;;
55784;SDS011;41709;52.536;5.688;2024-01-30T06:32:30;9.57;;;6.70;;
55784;SDS011;41709;52.536;5.688;2024-01-30T06:34:59;9.00;;;6.57;;
55784;SDS011;41709;52.536;5.688;2024-01-30T06:37:25;10.15;;;7.60;;
55784;SDS011;41709;52.536;5.688;2024-01-30T06:39:50;9.57;;;7.32;;
55784;SDS011;41709;52.536;5.688;2024-01-30T06:42:17;11.52;;;7.20;;
55784;SDS011;41709;52.536;5.688;2024-01-30T06:44:43;9.10;;;6.72;;
55784;SDS011;41709;52.536;5.688;2024-01-30T06:47:09;11.93;;;8.10;;
55784;SDS011;41709;52.536;5.688;2024-01-30T06:49:35;11.88;;;7.47;;
55784;SDS011;41709;52.536;5.688;2024-01-30T06:52:04;9.55;;;7.25;;
55784;SDS011;41709;52.536;5.688;2024-01-30T06:54:30;11.20;;;7.38;;
55784;SDS011;41709;52.536;5.688;2024-01-30T06:56:56;11.05;;;6.88;;
55784;SDS011;41709;52.536;5.688;2024-01-30T06:59:21;14.13;;;7.38;;
55784;SDS011;41709;52.536;5.688;2024-01-30T07:01:47;10.10;;;7.40;;
55784;SDS011;41709;52.536;5.688;2024-01-30T07:04:12;12.43;;;7.22;;
55784;SDS011;41709;52.536;5.688;2024-01-30T07:06:38;11.18;;;7.35;;
55784;SDS011;41709;52.536;5.688;2024-01-30T07:09:04;11.32;;;7.45;;
55784;SDS011;41709;52.536;5.688;2024-01-30T07:11:30;13.52;;;8.15;;
55784;SDS011;41709;52.536;5.688;2024-01-30T07:13:56;11.55;;;7.20;;
55784;SDS011;41709;52.536;5.688;2024-01-30T07:16:21;12.77;;;7.03;;
55784;SDS011;41709;52.536;5.688;2024-01-30T07:18:48;13.60;;;7.60;;
55784;SDS011;41709;52.536;5.688;2024-01-30T07:21:14;12.13;;;9.02;;
55784;SDS011;41709;52.536;5.688;2024-01-30T07:23:40;9.48;;;7.40;;
55784;SDS011;41709;52.536;5.688;2024-01-30T07:26:07;10.52;;;7.60;;
55784;SDS011;41709;52.536;5.688;2024-01-30T07:28:33;11.35;;;7.38;;
55784;SDS011;41709;52.536;5.688;2024-01-30T07:30:59;12.80;;;7.57;;
55784;SDS011;41709;52.536;5.688;2024-01-30T07:33:26;8.85;;;7.00;;
55784;SDS011;41709;52.536;5.688;2024-01-30T07:35:52;11.48;;;6.85;;
55784;SDS011;41709;52.536;5.688;2024-01-30T07:38:18;12.88;;;6.93;;
55784;SDS011;41709;52.536;5.688;2024-01-30T07:40:43;11.60;;;6.93;;
55784;SDS011;41709;52.536;5.688;2024-01-30T07:43:09;15.02;;;7.93;;
55784;SDS011;41709;52.536;5.688;2024-01-30T07:45:35;11.20;;;6.93;;
55784;SDS011;41709;52.536;5.688;2024-01-30T07:48:02;12.40;;;7.53;;
55784;SDS011;41709;52.536;5.688;2024-01-30T07:50:28;11.18;;;7.93;;
55784;SDS011;41709;52.536;5.688;2024-01-30T07:52:55;9.98;;;6.75;;
55784;SDS011;41709;52.536;5.688;2024-01-30T07:55:21;10.30;;;6.55;;
55784;SDS011;41709;52.536;5.688;2024-01-30T07:57:50;10.82;;;7.13;;
55784;SDS011;41709;52.536;5.688;2024-01-30T08:00:19;11.88;;;7.40;;
55784;SDS011;41709;52.536;5.688;2024-01-30T08:02:55;9.55;;;7.35;;
55784;SDS011;41709;52.536;5.688;2024-01-30T08:05:21;9.45;;;6.90;;
55784;SDS011;41709;52.536;5.688;2024-01-30T08:07:50;10.77;;;7.07;;
55784;SDS011;41709;52.536;5.688;2024-01-30T08:10:16;11.45;;;6.85;;
55784;SDS011;41709;52.536;5.688;2024-01-30T08:12:43;10.60;;;7.45;;
55784;SDS011;41709;52.536;5.688;2024-01-30T08:15:09;10.18;;;7.05;;
55784;SDS011;41709;52.536;5.688;2024-01-30T08:17:37;9.80;;;6.88;;
55784;SDS011;41709;52.536;5.688;2024-01-30T08:20:02;10.63;;;6.85;;
55784;SDS011;41709;52.536;5.688;2024-01-30T08:22:29;11.50;;;7.28;;
55784;SDS011;41709;52.536;5.688;2024-01-30T08:24:55;12.45;;;6.97;;
55784;SDS011;41709;52.536;5.688;2024-01-30T08:27:21;9.40;;;6.72;;
55784;SDS011;41709;52.536;5.688;2024-01-30T08:29:46;10.90;;;7.38;;
55784;SDS011;41709;52.536;5.688;2024-01-30T08:32:12;12.60;;;7.22;;
55784;SDS011;41709;52.536;5.688;2024-01-30T08:34:37;12.95;;;6.80;;
55784;SDS011;41709;52.536;5.688;2024-01-30T08:37:03;11.02;;;7.10;;
55784;SDS011;41709;52.536;5.688;2024-01-30T08:39:28;12.60;;;7.50;;
55784;SDS011;41709;52.536;5.688;2024-01-30T08:41:55;14.77;;;8.75;;
55784;SDS011;41709;52.536;5.688;2024-01-30T08:44:21;12.07;;;6.75;;
55784;SDS011;41709;52.536;5.688;2024-01-30T08:46:46;9.07;;;7.05;;
55784;SDS011;41709;52.536;5.688;2024-01-30T08:49:12;12.90;;;6.80;;
55784;SDS011;41709;52.536;5.688;2024-01-30T08:51:41;9.90;;;6.78;;
55784;SDS011;41709;52.536;5.688;2024-01-30T08:54:07;13.73;;;7.28;;
55784;SDS011;41709;52.536;5.688;2024-01-30T08:56:32;10.32;;;6.93;;
55784;SDS011;41709;52.536;5.688;2024-01-30T08:58:58;9.68;;;6.95;;
55784;SDS011;41709;52.536;5.688;2024-01-30T09:01:24;10.50;;;6.35;;
55784;SDS011;41709;52.536;5.688;2024-01-30T09:03:50;15.20;;;7.15;;
55784;SDS011;41709;52.536;5.688;2024-01-30T09:06:16;12.93;;;7.57;;
55784;SDS011;41709;52.536;5.688;2024-01-30T09:08:41;10.55;;;6.45;;
55784;SDS011;41709;52.536;5.688;2024-01-30T09:11:13;17.02;;;8.10;;
55784;SDS011;41709;52.536;5.688;2024-01-30T09:13:39;11.88;;;7.00;;
55784;SDS011;41709;52.536;5.688;2024-01-30T09:16:06;16.92;;;7.03;;
55784;SDS011;41709;52.536;5.688;2024-01-30T09:18:31;10.35;;;6.22;;
55784;SDS011;41709;52.536;5.688;2024-01-30T09:20:57;12.70;;;7.97;;
55784;SDS011;41709;52.536;5.688;2024-01-30T09:23:23;13.88;;;7.32;;
55784;SDS011;41709;52.536;5.688;2024-01-30T09:25:49;14.02;;;7.20;;
55784;SDS011;41709;52.536;5.688;2024-01-30T09:28:15;17.15;;;7.32;;
55784;SDS011;41709;52.536;5.688;2024-01-30T09:30:42;10.65;;;6.63;;
55784;SDS011;41709;52.536;5.688;2024-01-30T09:33:07;16.83;;;7.53;;
55784;SDS011;41709;52.536;5.688;2024-01-30T09:35:33;13.00;;;7.65;;
55784;SDS011;41709;52.536;5.688;2024-01-30T09:37:59;13.77;;;7.53;;
55784;SDS011;41709;52.536;5.688;2024-01-30T09:40:24;12.85;;;7.28;;
55784;SDS011;41709;52.536;5.688;2024-01-30T09:42:50;17.70;;;7.82;;
55784;SDS011;41709;52.536;5.688;2024-01-30T09:45:20;15.88;;;7.60;;
55784;SDS011;41709;52.536;5.688;2024-01-30T09:47:49;16.13;;;7.60;;
55784;SDS011;41709;52.536;5.688;2024-01-30T09:50:15;11.35;;;7.20;;
55784;SDS011;41709;52.536;5.688;2024-01-30T09:52:42;11.10;;;7.40;;
55784;SDS011;41709;52.536;5.688;2024-01-30T09:55:09;12.45;;;6.63;;
55784;SDS011;41709;52.536;5.688;2024-01-30T09:57:35;12.98;;;7.28;;
55784;SDS011;41709;52.536;5.688;2024-01-30T10:00:02;16.02;;;7.38;;
55784;SDS011;41709;52.536;5.688;2024-01-30T10:02:30;10.70;;;7.43;;
55784;SDS011;41709;52.536;5.688;2024-01-30T10:04:56;13.55;;;7.80;;
55784;SDS011;41709;52.536;5.688;2024-01-30T10:07:22;13.98;;;7.82;;
55784;SDS011;41709;52.536;5.688;2024-01-30T10:09:48;14.75;;;7.35;;
55784;SDS011;41709;52.536;5.688;2024-01-30T10:12:14;13.35;;;8.65;;
55784;SDS011;41709;52.536;5.688;2024-01-30T10:14:40;16.98;;;8.23;;
55784;SDS011;41709;52.536;5.688;2024-01-30T10:17:07;18.02;;;8.88;;
55784;SDS011;41709;52.536;5.688;2024-01-30T10:19:34;14.45;;;9.52;;
55784;SDS011;41709;52.536;5.688;2024-01-30T10:22:03;14.50;;;8.75;;
55784;SDS011;41709;52.536;5.688;2024-01-30T10:24:29;17.67;;;9.30;;
55784;SDS011;41709;52.536;5.688;2024-01-30T10:26:55;16.90;;;9.88;;
55784;SDS011;41709;52.536;5.688;2024-01-30T10:29:21;18.00;;;8.18;;
55784;SDS011;41709;52.536;5.688;2024-01-30T10:34:29;11.05;;;7.32;;
55784;SDS011;41709;52.536;5.688;2024-01-30T10:37:16;13.77;;;7.95;;
55784;SDS011;41709;52.536;5.688;2024-01-30T10:39:42;18.92;;;9.02;;
55784;SDS011;41709;52.536;5.688;2024-01-30T10:42:17;10.98;;;7.25;;
55784;SDS011;41709;52.536;5.688;2024-01-30T10:47:34;13.05;;;7.63;;
55784;SDS011;41709;52.536;5.688;2024-01-30T10:50:03;9.02;;;7.10;;
55784;SDS011;41709;52.536;5.688;2024-01-30T10:52:29;12.38;;;7.07;;
55784;SDS011;41709;52.536;5.688;2024-01-30T10:54:56;10.63;;;6.93;;
55784;SDS011;41709;52.536;5.688;2024-01-30T10:57:25;13.02;;;6.85;;
55784;SDS011;41709;52.536;5.688;2024-01-30T10:59:58;12.57;;;6.80;;
55784;SDS011;41709;52.536;5.688;2024-01-30T11:02:25;13.20;;;7.38;;
55784;SDS011;41709;52.536;5.688;2024-01-30T11:04:55;10.18;;;6.30;;
55784;SDS011;41709;52.536;5.688;2024-01-30T11:07:25;9.45;;;6.15;;
55784;SDS011;41709;52.536;5.688;2024-01-30T11:12:25;9.45;;;5.88;;
55784;SDS011;41709;52.536;5.688;2024-01-30T11:15:05;11.30;;;5.32;;
55784;SDS011;41709;52.536;5.688;2024-01-30T11:20:14;8.82;;;4.68;;
55784;SDS011;41709;52.536;5.688;2024-01-30T11:22:44;9.98;;;4.18;;
55784;SDS011;41709;52.536;5.688;2024-01-30T11:25:11;11.02;;;3.92;;
55784;SDS011;41709;52.536;5.688;2024-01-30T11:27:38;8.02;;;3.00;;
55784;SDS011;41709;52.536;5.688;2024-01-30T11:30:04;8.40;;;2.75;;
55784;SDS011;41709;52.536;5.688;2024-01-30T11:32:30;8.25;;;2.63;;
55784;SDS011;41709;52.536;5.688;2024-01-30T11:34:56;7.03;;;2.28;;
55784;SDS011;41709;52.536;5.688;2024-01-30T11:37:22;7.88;;;2.85;;
55784;SDS011;41709;52.536;5.688;2024-01-30T11:39:51;6.40;;;2.50;;
55784;SDS011;41709;52.536;5.688;2024-01-30T11:42:18;7.07;;;3.25;;
55784;SDS011;41709;52.536;5.688;2024-01-30T11:44:47;5.80;;;2.42;;
55784;SDS011;41709;52.536;5.688;2024-01-30T11:47:14;9.97;;;3.10;;
55784;SDS011;41709;52.536;5.688;2024-01-30T11:49:40;9.02;;;2.63;;
55784;SDS011;41709;52.536;5.688;2024-01-30T11:52:06;4.55;;;2.22;;
55784;SDS011;41709;52.536;5.688;2024-01-30T11:54:32;6.38;;;1.90;;
55784;SDS011;41709;52.536;5.688;2024-01-30T11:56:58;7.25;;;1.98;;
55784;SDS011;41709;52.536;5.688;2024-01-30T11:59:23;4.30;;;1.10;;
55784;SDS011;41709;52.536;5.688;2024-01-30T12:01:51;4.22;;;1.95;;
55784;SDS011;41709;52.536;5.688;2024-01-30T12:04:17;5.15;;;1.48;;
55784;SDS011;41709;52.536;5.688;2024-01-30T12:06:42;7.38;;;1.45;;
55784;SDS011;41709;52.536;5.688;2024-01-30T12:09:08;2.67;;;1.15;;
55784;SDS011;41709;52.536;5.688;2024-01-30T12:11:44;3.83;;;1.40;;
55784;SDS011;41709;52.536;5.688;2024-01-30T12:14:11;5.85;;;1.55;;
55784;SDS011;41709;52.536;5.688;2024-01-30T12:16:37;3.75;;;1.10;;
55784;SDS011;41709;52.536;5.688;2024-01-30T12:19:03;2.00;;;0.88;;
55784;SDS011;41709;52.536;5.688;2024-01-30T12:21:29;2.88;;;1.20;;
55784;SDS011;41709;52.536;5.688;2024-01-30T12:23:55;4.07;;;1.10;;
55784;SDS011;41709;52.536;5.688;2024-01-30T12:26:23;3.45;;;0.77;;
55784;SDS011;41709;52.536;5.688;2024-01-30T12:28:50;2.67;;;0.63;;
55784;SDS011;41709;52.536;5.688;2024-01-30T12:31:24;2.88;;;0.80;;
55784;SDS011;41709;52.536;5.688;2024-01-30T12:33:51;2.97;;;0.90;;
55784;SDS011;41709;52.536;5.688;2024-01-30T12:36:17;4.30;;;1.05;;
55784;SDS011;41709;52.536;5.688;2024-01-30T12:38:43;4.53;;;1.33;;
55784;SDS011;41709;52.536;5.688;2024-01-30T12:41:08;2.38;;;0.85;;
55784;SDS011;41709;52.536;5.688;2024-01-30T12:43:35;4.38;;;1.30;;
55784;SDS011;41709;52.536;5.688;2024-01-30T12:46:01;5.95;;;1.13;;
55784;SDS011;41709;52.536;5.688;2024-01-30T12:48:28;5.07;;;1.48;;
55784;SDS011;41709;52.536;5.688;2024-01-30T12:50:54;3.80;;;1.00;;
55784;SDS011;41709;52.536;5.688;2024-01-30T12:53:21;4.40;;;1.13;;
55784;SDS011;41709;52.536;5.688;2024-01-30T12:55:46;5.68;;;1.15;;
55784;SDS011;41709;52.536;5.688;2024-01-30T12:58:12;9.35;;;2.17;;
55784;SDS011;41709;52.536;5.688;2024-01-30T13:00:38;4.82;;;1.23;;
55784;SDS011;41709;52.536;5.688;2024-01-30T13:03:03;6.63;;;1.30;;
55784;SDS011;41709;52.536;5.688;2024-01-30T13:05:29;5.95;;;1.20;;
55784;SDS011;41709;52.536;5.688;2024-01-30T13:07:55;7.00;;;1.23;;
55784;SDS011;41709;52.536;5.688;2024-01-30T13:10:22;2.15;;;1.08;;
55784;SDS011;41709;52.536;5.688;2024-01-30T13:12:48;2.60;;;0.85;;
55784;SDS011;41709;52.536;5.688;2024-01-30T13:15:13;4.13;;;0.95;;
55784;SDS011;41709;52.536;5.688;2024-01-30T13:17:39;2.53;;;0.70;;
55784;SDS011;41709;52.536;5.688;2024-01-30T13:20:04;2.60;;;0.90;;
55784;SDS011;41709;52.536;5.688;2024-01-30T13:22:33;6.18;;;1.40;;
55784;SDS011;41709;52.536;5.688;2024-01-30T13:24:58;5.70;;;1.13;;
55784;SDS011;41709;52.536;5.688;2024-01-30T13:27:24;5.25;;;0.90;;
55784;SDS011;41709;52.536;5.688;2024-01-30T13:29:50;3.45;;;1.45;;
55784;SDS011;41709;52.536;5.688;2024-01-30T13:32:15;2.30;;;1.08;;
55784;SDS011;41709;52.536;5.688;2024-01-30T13:34:41;5.05;;;1.27;;
55784;SDS011;41709;52.536;5.688;2024-01-30T13:37:08;6.32;;;1.73;;
55784;SDS011;41709;52.536;5.688;2024-01-30T13:39:33;7.88;;;3.47;;
55784;SDS011;41709;52.536;5.688;2024-01-30T13:41:59;5.20;;;1.05;;
55784;SDS011;41709;52.536;5.688;2024-01-30T13:44:24;2.50;;;1.10;;
55784;SDS011;41709;52.536;5.688;2024-01-30T13:46:50;5.18;;;1.38;;
55784;SDS011;41709;52.536;5.688;2024-01-30T13:49:16;5.93;;;1.05;;
55784;SDS011;41709;52.536;5.688;2024-01-30T13:51:41;8.93;;;1.17;;
55784;SDS011;41709;52.536;5.688;2024-01-30T13:54:07;5.88;;;1.27;;
55784;SDS011;41709;52.536;5.688;2024-01-30T13:56:33;4.10;;;1.20;;
55784;SDS011;41709;52.536;5.688;2024-01-30T13:58:59;7.00;;;1.17;;
55784;SDS011;41709;52.536;5.688;2024-01-30T14:01:26;6.78;;;1.60;;
55784;SDS011;41709;52.536;5.688;2024-01-30T14:03:51;4.80;;;1.10;;
55784;SDS011;41709;52.536;5.688;2024-01-30T14:06:17;6.95;;;1.30;;
55784;SDS011;41709;52.536;5.688;2024-01-30T14:08:43;5.05;;;1.33;;
55784;SDS011;41709;52.536;5.688;2024-01-30T14:11:09;8.13;;;2.15;;
55784;SDS011;41709;52.536;5.688;2024-01-30T14:13:34;5.95;;;1.27;;
55784;SDS011;41709;52.536;5.688;2024-01-30T14:16:00;3.50;;;1.00;;
55784;SDS011;41709;52.536;5.688;2024-01-30T14:18:26;2.35;;;1.20;;
55784;SDS011;41709;52.536;5.688;2024-01-30T14:20:51;2.40;;;1.10;;
55784;SDS011;41709;52.536;5.688;2024-01-30T14:23:17;2.15;;;1.38;;
55784;SDS011;41709;52.536;5.688;2024-01-30T14:25:43;2.42;;;1.10;;
55784;SDS011;41709;52.536;5.688;2024-01-30T14:28:09;3.63;;;1.00;;
55784;SDS011;41709;52.536;5.688;2024-01-30T14:30:35;3.20;;;1.20;;
55784;SDS011;41709;52.536;5.688;2024-01-30T14:33:00;2.63;;;1.23;;
55784;SDS011;41709;52.536;5.688;2024-01-30T14:35:26;4.65;;;1.23;;
55784;SDS011;41709;52.536;5.688;2024-01-30T14:37:52;3.70;;;1.52;;
55784;SDS011;41709;52.536;5.688;2024-01-30T14:40:18;3.75;;;1.73;;
55784;SDS011;41709;52.536;5.688;2024-01-30T14:42:45;2.90;;;1.50;;